Time;durP1;ratioP1;P1;durP2;ratioP2;P2;SDS_P1;SDS_P2;PMS_P1;PMS_P2;Temp;Humidity;BMP_temperature;BMP_pressure;BME280_temperature;BME280_humidity;BME280_pressure;Samples;Min_cycle;Max_cycle;Signal;HPM_P1;HPM_P2
2022/07/25 00:00:09;;;;;;;3.40;2.80;;;23.60;99.90;;;;;;5067066;28;20037;-80
2022/07/25 00:02:35;;;;;;;4.53;2.83;;;23.70;99.90;;;;;;5069913;28;20037;-80
2022/07/25 00:05:01;;;;;;;4.93;3.10;;;23.30;99.90;;;;;;5071114;28;20064;-80
2022/07/25 00:07:28;;;;;;;2.60;2.40;;;25.40;99.90;;;;;;5069852;28;20043;-79
2022/07/25 00:09:54;;;;;;;2.70;2.45;;;23.40;99.90;;;;;;5068854;28;20072;-79
2022/07/25 00:12:20;;;;;;;5.43;3.00;;;23.50;99.90;;;;;;5066790;28;20487;-79
2022/07/25 00:14:46;;;;;;;3.38;2.65;;;23.40;99.90;;;;;;5065792;28;20530;-79
2022/07/25 00:17:12;;;;;;;3.97;2.30;;;23.60;99.90;;;;;;5065427;28;20067;-79
2022/07/25 00:19:38;;;;;;;3.60;2.53;;;23.50;99.90;;;;;;5065891;28;20041;-79
2022/07/25 00:22:04;;;;;;;2.60;2.33;;;24.10;99.90;;;;;;5065418;28;20037;-80
2022/07/25 00:24:29;;;;;;;2.55;2.35;;;24.30;99.90;;;;;;5065219;28;20072;-79
2022/07/25 00:26:55;;;;;;;4.40;2.90;;;23.60;99.90;;;;;;5065804;28;20032;-79
2022/07/25 00:29:20;;;;;;;3.53;2.63;;;23.90;99.90;;;;;;5066825;28;20087;-79
2022/07/25 00:31:46;;;;;;;4.32;3.00;;;23.50;99.90;;;;;;5067648;28;20041;-80
2022/07/25 00:34:12;;;;;;;5.05;2.33;;;23.60;99.90;;;;;;5070023;28;20087;-79
2022/07/25 00:36:38;;;;;;;4.07;2.30;;;23.50;99.90;;;;;;5053702;28;20041;-79
2022/07/25 00:39:04;;;;;;;4.95;2.55;;;24.10;99.90;;;;;;5064446;28;20041;-80
2022/07/25 00:41:30;;;;;;;4.45;3.15;;;23.30;99.90;;;;;;5064176;28;20128;-79
2022/07/25 00:43:56;;;;;;;4.72;2.92;;;23.30;99.90;;;;;;5063965;28;20029;-79
2022/07/25 00:46:21;;;;;;;5.50;2.90;;;23.30;99.90;;;;;;5064441;28;20100;-79
2022/07/25 00:48:47;;;;;;;4.25;2.75;;;23.10;99.90;;;;;;5064404;28;20124;-79
2022/07/25 00:51:14;;;;;;;2.60;2.30;;;23.20;99.90;;;;;;5064574;28;20036;-79
2022/07/25 00:53:40;;;;;;;5.32;2.78;;;23.80;99.90;;;;;;5049665;28;20266;-80
2022/07/25 00:56:06;;;;;;;4.22;3.20;;;23.20;99.90;;;;;;5067037;28;20067;-79
2022/07/25 00:58:32;;;;;;;3.58;3.25;;;23.10;99.90;;;;;;5067764;28;20076;-80
2022/07/25 01:00:59;;;;;;;4.95;3.08;;;22.90;99.90;;;;;;5067659;28;20116;-79
2022/07/25 01:03:25;;;;;;;4.28;3.42;;;23.60;99.90;;;;;;5049755;28;20037;-79
2022/07/25 01:05:50;;;;;;;3.83;3.10;;;23.20;99.90;;;;;;5050289;28;20041;-79
2022/07/25 01:08:18;;;;;;;5.65;3.60;;;23.00;99.90;;;;;;5052842;28;20061;-79
2022/07/25 01:10:45;;;;;;;4.45;3.65;;;23.10;99.90;;;;;;5057767;28;20044;-80
2022/07/25 01:13:10;;;;;;;3.30;3.00;;;22.90;99.90;;;;;;5057468;28;20041;-80
2022/07/25 01:15:36;;;;;;;4.15;3.25;;;22.90;99.90;;;;;;5052100;28;20098;-79
2022/07/25 01:18:02;;;;;;;4.05;3.13;;;22.50;99.90;;;;;;5055650;28;20048;-80
2022/07/25 01:20:29;;;;;;;4.68;3.53;;;22.70;99.90;;;;;;5071351;28;20047;-80
2022/07/25 01:22:55;;;;;;;6.35;3.53;;;23.30;99.90;;;;;;5067496;28;20040;-79
2022/07/25 01:25:21;;;;;;;3.63;3.28;;;22.90;99.90;;;;;;5068100;28;20483;-80
2022/07/25 01:27:48;;;;;;;4.80;3.20;;;22.80;99.90;;;;;;5067026;28;20059;-79
2022/07/25 01:30:15;;;;;;;3.80;3.10;;;22.40;99.90;;;;;;5067890;28;20091;-80
2022/07/25 01:32:42;;;;;;;7.50;3.17;;;22.80;99.90;;;;;;5066657;28;20055;-79
2022/07/25 01:35:09;;;;;;;4.57;3.63;;;22.60;99.90;;;;;;5066897;28;20045;-80
2022/07/25 01:37:35;;;;;;;4.38;3.22;;;22.90;99.90;;;;;;5067985;28;20040;-79
2022/07/25 01:40:01;;;;;;;4.65;3.20;;;22.70;99.90;;;;;;5068067;28;20048;-79
2022/07/25 01:42:27;;;;;;;4.05;3.35;;;22.70;99.90;;;;;;5068401;28;20043;-80
2022/07/25 01:44:53;;;;;;;4.75;3.38;;;22.50;99.90;;;;;;5067723;28;20120;-79
2022/07/25 01:47:19;;;;;;;6.57;3.92;;;22.50;99.90;;;;;;5073236;28;20058;-80
2022/07/25 01:49:45;;;;;;;5.00;3.40;;;22.20;99.90;;;;;;5074051;28;20088;-80
2022/07/25 01:52:12;;;;;;;4.68;3.40;;;22.30;99.90;;;;;;5070277;28;20502;-80
2022/07/25 01:54:38;;;;;;;4.00;3.33;;;22.60;99.90;;;;;;5069734;28;20553;-79
2022/07/25 01:57:04;;;;;;;3.92;3.55;;;22.50;99.90;;;;;;5071210;28;20068;-80
2022/07/25 01:59:30;;;;;;;4.78;3.53;;;22.40;99.90;;;;;;5072827;28;20040;-80
2022/07/25 02:01:55;;;;;;;5.10;3.30;;;22.30;99.90;;;;;;5074499;28;20041;-80
2022/07/25 02:04:21;;;;;;;4.82;3.45;;;23.80;99.90;;;;;;5073545;28;20044;-80
2022/07/25 02:06:47;;;;;;;7.03;3.05;;;22.30;99.90;;;;;;5073078;28;20040;-79
2022/07/25 02:09:13;;;;;;;3.50;3.20;;;22.50;99.90;;;;;;5072614;28;20571;-79
2022/07/25 02:11:38;;;;;;;4.20;3.50;;;22.30;99.90;;;;;;5073823;28;20052;-80
2022/07/25 02:14:04;;;;;;;6.80;3.35;;;22.20;99.90;;;;;;5073717;28;20063;-79
2022/07/25 02:16:30;;;;;;;4.45;3.22;;;22.40;99.90;;;;;;5073020;28;20047;-79
2022/07/25 02:18:55;;;;;;;4.13;3.47;;;24.20;99.90;;;;;;5074371;28;20093;-80
2022/07/25 02:21:21;;;;;;;3.53;3.20;;;22.30;99.90;;;;;;5073427;28;20041;-80
2022/07/25 02:23:47;;;;;;;4.72;3.33;;;23.10;99.90;;;;;;5068245;28;20043;-80
2022/07/25 02:26:13;;;;;;;4.50;3.60;;;22.00;99.90;;;;;;5066955;28;20033;-80
2022/07/25 02:28:39;;;;;;;5.15;4.20;;;22.70;99.90;;;;;;5066181;28;20040;-79
2022/07/25 02:31:05;;;;;;;5.88;3.70;;;22.40;99.90;;;;;;5067442;28;20051;-79
2022/07/25 02:33:31;;;;;;;3.72;3.33;;;22.20;99.90;;;;;;5067504;28;20045;-80
2022/07/25 02:35:56;;;;;;;6.38;3.45;;;22.00;99.90;;;;;;5067111;28;20056;-81
2022/07/25 02:38:22;;;;;;;4.47;3.55;;;24.60;99.90;;;;;;5068657;28;20043;-80
2022/07/25 02:40:49;;;;;;;7.45;3.92;;;21.90;99.90;;;;;;5067031;28;20182;-80
2022/07/25 02:43:15;;;;;;;4.47;3.72;;;23.60;99.90;;;;;;5070397;28;20049;-81
2022/07/25 02:45:41;;;;;;;4.80;3.40;;;23.50;99.90;;;;;;5055306;28;20120;-80
2022/07/25 02:48:07;;;;;;;6.45;4.05;;;22.70;99.90;;;;;;5071493;28;20044;-80
2022/07/25 02:50:32;;;;;;;4.97;3.63;;;23.60;99.90;;;;;;5049949;28;20040;-81
2022/07/25 02:52:58;;;;;;;4.93;4.10;;;22.10;99.90;;;;;;5067338;28;20095;-80
2022/07/25 02:55:23;;;;;;;6.00;4.25;;;21.70;99.90;;;;;;5071767;28;20041;-80
2022/07/25 02:57:49;;;;;;;8.05;4.32;;;22.00;99.90;;;;;;5055415;28;20108;-81
2022/07/25 03:00:15;;;;;;;4.70;3.90;;;22.20;99.90;;;;;;5053709;28;20072;-80
2022/07/25 03:02:41;;;;;;;4.55;4.15;;;22.30;99.90;;;;;;5066675;28;20033;-80
2022/07/25 03:05:13;;;;;;;5.85;4.25;;;23.10;99.90;;;;;;5069238;28;20058;-81
2022/07/25 03:07:39;;;;;;;7.15;4.45;;;21.80;99.90;;;;;;5050773;28;20040;-79
2022/07/25 03:10:07;;;;;;;5.32;4.68;;;22.20;99.90;;;;;;5067951;28;20479;-80
2022/07/25 03:12:33;;;;;;;4.25;3.80;;;21.90;99.90;;;;;;5048466;28;20037;-80
2022/07/25 03:14:59;;;;;;;7.07;4.18;;;22.00;99.90;;;;;;5064793;28;20052;-80
2022/07/25 03:17:25;;;;;;;6.97;4.65;;;21.70;99.90;;;;;;5064661;28;20068;-80
2022/07/25 03:19:51;;;;;;;4.55;4.15;;;21.90;99.90;;;;;;5065089;28;20059;-80
2022/07/25 03:22:16;;;;;;;8.57;4.32;;;21.40;99.90;;;;;;5064653;28;20616;-81
2022/07/25 03:24:42;;;;;;;5.10;4.60;;;21.80;99.90;;;;;;5047269;28;20092;-81
2022/07/25 03:27:08;;;;;;;5.78;4.75;;;21.70;99.90;;;;;;5047561;28;20041;-79
2022/07/25 03:29:34;;;;;;;5.32;4.50;;;21.60;99.90;;;;;;5047407;28;20501;-80
2022/07/25 03:32:00;;;;;;;6.68;4.63;;;21.70;99.90;;;;;;5087698;22;20060;-72
2022/07/25 03:34:26;;;;;;;5.40;4.63;;;21.60;99.90;;;;;;5053775;28;20032;-72
2022/07/25 03:36:51;;;;;;;6.25;4.97;;;22.00;99.90;;;;;;5054733;28;20272;-72
2022/07/25 03:39:19;;;;;;;5.90;4.57;;;21.40;99.90;;;;;;5072662;28;20390;-72
2022/07/25 03:41:45;;;;;;;5.20;4.35;;;21.70;99.90;;;;;;5072385;28;20559;-72
2022/07/25 03:44:11;;;;;;;6.43;4.80;;;21.70;99.90;;;;;;5038107;28;20392;-72
2022/07/25 03:46:37;;;;;;;5.25;4.55;;;22.10;99.90;;;;;;5072549;28;20470;-72
2022/07/25 03:49:03;;;;;;;4.93;4.32;;;21.40;99.90;;;;;;5072682;28;20163;-72
2022/07/25 03:51:29;;;;;;;7.13;4.68;;;21.40;99.90;;;;;;5054670;28;20537;-72
2022/07/25 03:54:07;;;;;;;5.40;4.72;;;22.20;99.90;;;;;;5054526;28;20093;-72
2022/07/25 03:56:41;;;;;;;7.63;4.85;;;21.70;99.90;;;;;;5072347;28;20072;-73
2022/07/25 03:59:08;;;;;;;7.57;5.40;;;21.60;99.90;;;;;;5054547;28;20043;-72
2022/07/25 04:01:35;;;;;;;7.43;4.78;;;21.50;99.90;;;;;;5054655;28;20447;-72
2022/07/25 04:04:01;;;;;;;5.80;4.82;;;21.40;99.90;;;;;;5054284;28;20143;-72
2022/07/25 04:06:27;;;;;;;7.10;4.82;;;21.60;99.90;;;;;;5054545;28;20379;-72
2022/07/25 04:08:53;;;;;;;5.13;4.63;;;21.60;99.90;;;;;;5054065;28;20039;-72
2022/07/25 04:11:20;;;;;;;8.55;5.20;;;21.60;99.90;;;;;;5072086;28;20127;-72
2022/07/25 04:13:45;;;;;;;7.03;4.88;;;21.90;99.90;;;;;;5053781;28;20039;-71
2022/07/25 04:16:12;;;;;;;7.13;4.90;;;21.90;99.90;;;;;;5053894;28;20506;-72
2022/07/25 04:18:38;;;;;;;7.50;5.35;;;21.40;99.90;;;;;;5072068;28;20116;-72
2022/07/25 04:21:04;;;;;;;9.15;5.72;;;22.00;99.90;;;;;;5072120;28;20135;-72
2022/07/25 04:23:30;;;;;;;8.40;5.28;;;21.50;99.90;;;;;;5053661;28;20520;-72
2022/07/25 04:25:56;;;;;;;6.15;5.03;;;21.50;99.90;;;;;;5071748;28;20086;-72
2022/07/25 04:28:22;;;;;;;7.97;5.97;;;21.60;99.90;;;;;;5053956;28;20041;-72
2022/07/25 04:30:49;;;;;;;10.48;6.10;;;21.50;99.90;;;;;;5053739;28;20037;-72
2022/07/25 04:33:15;;;;;;;9.13;5.53;;;22.30;99.90;;;;;;5053487;28;20067;-72
2022/07/25 04:35:41;;;;;;;6.32;4.95;;;21.70;99.90;;;;;;5037034;28;20052;-72
2022/07/25 04:38:06;;;;;;;10.13;5.70;;;22.10;99.90;;;;;;5071601;28;20626;-72
2022/07/25 04:40:32;;;;;;;6.70;5.28;;;21.70;99.90;;;;;;5053534;28;20497;-72
2022/07/25 04:42:57;;;;;;;9.63;6.22;;;21.80;99.90;;;;;;5071678;28;20038;-72
2022/07/25 04:45:23;;;;;;;5.85;4.95;;;21.60;99.90;;;;;;5071134;28;20043;-70
2022/07/25 04:47:49;;;;;;;6.30;4.95;;;21.60;99.90;;;;;;5071512;28;20039;-72
2022/07/25 04:50:15;;;;;;;9.32;5.72;;;21.80;99.90;;;;;;5071565;28;20086;-72
2022/07/25 04:52:41;;;;;;;7.40;6.07;;;21.70;99.90;;;;;;5053401;28;20044;-72
2022/07/25 04:55:07;;;;;;;10.38;6.20;;;21.60;99.90;;;;;;5053179;28;20036;-72
2022/07/25 04:57:33;;;;;;;7.85;6.32;;;21.60;99.90;;;;;;5053707;28;20044;-73
2022/07/25 04:59:58;;;;;;;9.52;6.75;;;22.40;99.90;;;;;;5036969;28;20039;-72
2022/07/25 05:02:24;;;;;;;8.35;5.80;;;21.90;99.90;;;;;;5053471;28;20052;-72
2022/07/25 05:04:51;;;;;;;7.78;6.75;;;22.00;99.90;;;;;;5053242;28;20501;-72
2022/07/25 05:07:16;;;;;;;9.73;6.00;;;21.80;99.90;;;;;;5071207;28;20060;-72
2022/07/25 05:09:42;;;;;;;8.20;6.28;;;21.60;99.90;;;;;;5053442;28;20076;-72
2022/07/25 05:12:08;;;;;;;7.38;6.43;;;22.70;99.90;;;;;;5071302;28;20033;-73
2022/07/25 05:14:33;;;;;;;6.88;5.47;;;21.80;99.90;;;;;;5052891;28;20528;-72
2022/07/25 05:16:59;;;;;;;6.25;5.65;;;21.70;99.90;;;;;;5053230;28;20036;-72
2022/07/25 05:19:25;;;;;;;9.48;5.90;;;21.80;99.90;;;;;;5053397;28;20040;-72
2022/07/25 05:21:50;;;;;;;8.07;6.88;;;21.80;99.90;;;;;;5071014;28;20040;-73
2022/07/25 05:24:16;;;;;;;9.32;6.55;;;21.80;99.90;;;;;;5070681;28;20037;-72
2022/07/25 05:26:42;;;;;;;8.98;6.70;;;22.00;99.90;;;;;;5053486;28;20040;-72
2022/07/25 05:29:09;;;;;;;8.10;6.20;;;21.80;99.90;;;;;;5071466;28;20032;-72
2022/07/25 05:31:35;;;;;;;10.48;7.07;;;21.90;99.90;;;;;;5053090;28;20055;-72
2022/07/25 05:34:00;;;;;;;14.93;6.93;;;21.80;99.90;;;;;;5070898;28;20044;-72
2022/07/25 05:36:26;;;;;;;7.63;6.63;;;21.90;99.90;;;;;;5053255;28;20053;-72
2022/07/25 05:38:52;;;;;;;12.15;7.40;;;22.40;99.90;;;;;;5070844;28;20051;-72
2022/07/25 05:41:18;;;;;;;10.38;7.32;;;21.90;99.90;;;;;;5052884;28;20045;-72
2022/07/25 05:43:46;;;;;;;7.68;6.88;;;21.80;99.90;;;;;;5020105;28;20448;-70
2022/07/25 05:46:12;;;;;;;9.70;7.15;;;21.80;99.90;;;;;;5070755;28;20490;-73
2022/07/25 05:48:38;;;;;;;10.55;7.07;;;22.50;99.90;;;;;;5070951;28;20037;-72
2022/07/25 05:51:03;;;;;;;10.05;7.70;;;22.20;99.90;;;;;;5036175;28;20551;-72
2022/07/25 05:53:29;;;;;;;9.07;7.25;;;22.80;99.90;;;;;;5052974;28;20044;-72
2022/07/25 05:55:55;;;;;;;10.05;7.38;;;22.10;99.90;;;;;;5071771;28;20127;-72
2022/07/25 05:58:21;;;;;;;11.02;7.63;;;22.20;99.90;;;;;;5074715;28;20036;-72
2022/07/25 06:00:46;;;;;;;9.63;7.57;;;22.10;99.90;;;;;;5039494;28;20037;-72
2022/07/25 06:03:12;;;;;;;14.23;8.05;;;23.50;99.90;;;;;;5069355;28;20041;-72
2022/07/25 06:05:37;;;;;;;8.15;6.82;;;22.70;99.90;;;;;;5070423;28;20033;-72
2022/07/25 06:08:03;;;;;;;12.32;8.00;;;22.20;99.90;;;;;;5070994;28;20091;-72
2022/07/25 06:10:29;;;;;;;9.85;7.50;;;22.30;99.90;;;;;;5070834;28;20046;-72
2022/07/25 06:12:54;;;;;;;10.05;7.90;;;22.30;99.90;;;;;;5070550;28;20436;-70
2022/07/25 06:15:20;;;;;;;10.30;7.55;;;22.50;99.90;;;;;;5044118;28;20366;-72
2022/07/25 06:17:45;;;;;;;9.63;8.50;;;22.60;99.90;;;;;;5052512;28;20039;-73
2022/07/25 06:20:11;;;;;;;9.27;8.23;;;22.90;99.90;;;;;;5052292;28;20488;-72
2022/07/25 06:22:37;;;;;;;10.95;7.68;;;23.10;99.90;;;;;;5052542;28;20042;-72
2022/07/25 06:25:03;;;;;;;10.90;8.27;;;23.20;99.90;;;;;;5070336;28;20044;-72
2022/07/25 06:27:29;;;;;;;11.73;9.43;;;22.90;99.90;;;;;;5070760;28;20082;-72
2022/07/25 06:29:54;;;;;;;10.10;9.02;;;22.80;99.90;;;;;;5070615;28;20064;-74
2022/07/25 06:32:20;;;;;;;11.00;8.85;;;22.70;99.90;;;;;;5035937;28;20528;-72
2022/07/25 06:34:45;;;;;;;10.63;9.52;;;23.10;99.90;;;;;;5050608;28;20041;-71
2022/07/25 06:37:11;;;;;;;14.73;9.82;;;23.00;99.90;;;;;;5051664;28;20033;-73
2022/07/25 06:39:36;;;;;;;15.38;9.90;;;23.20;99.90;;;;;;5070238;28;20379;-73
2022/07/25 06:42:03;;;;;;;15.85;8.85;;;23.40;99.90;;;;;;5086251;28;20040;-73
2022/07/25 06:44:32;;;;;;;13.75;8.65;;;23.40;99.90;;;;;;5058718;28;20063;-73
2022/07/25 06:46:59;;;;;;;14.57;8.70;;;23.90;99.90;;;;;;5093889;28;20086;-72
2022/07/25 06:49:24;;;;;;;11.60;9.15;;;23.80;99.90;;;;;;5075579;28;20119;-73
2022/07/25 06:51:50;;;;;;;10.80;8.88;;;23.90;99.90;;;;;;5093541;28;20068;-74
2022/07/25 06:54:17;;;;;;;9.00;7.60;;;23.60;99.90;;;;;;5080491;28;20314;-73
2022/07/25 06:56:43;;;;;;;12.20;8.23;;;23.50;99.90;;;;;;5073648;28;20040;-73
2022/07/25 06:59:09;;;;;;;15.55;9.40;;;23.90;99.90;;;;;;5073526;28;20513;-73
2022/07/25 07:01:35;;;;;;;9.32;8.27;;;23.70;99.90;;;;;;5073260;28;20124;-73
2022/07/25 07:04:01;;;;;;;11.10;8.95;;;24.00;99.90;;;;;;5072829;28;20172;-73
2022/07/25 07:06:26;;;;;;;11.75;9.15;;;25.00;99.90;;;;;;5055025;28;20040;-73
2022/07/25 07:08:52;;;;;;;11.88;8.63;;;24.20;99.90;;;;;;5073380;28;20029;-73
2022/07/25 07:11:18;;;;;;;14.30;8.50;;;24.10;99.90;;;;;;5055137;28;20174;-73
2022/07/25 07:13:43;;;;;;;13.27;8.23;;;24.40;99.90;;;;;;5054869;28;20358;-72
2022/07/25 07:16:09;;;;;;;11.45;8.82;;;24.40;99.90;;;;;;5073038;28;20106;-73
2022/07/25 07:18:35;;;;;;;10.88;7.47;;;24.80;99.90;;;;;;5038472;28;20123;-72
2022/07/25 07:21:02;;;;;;;10.50;7.57;;;24.40;99.90;;;;;;5073151;28;20041;-73
2022/07/25 07:23:28;;;;;;;11.23;6.82;;;24.10;99.90;;;;;;5038108;28;20510;-73
2022/07/25 07:25:53;;;;;;;11.43;6.53;;;23.90;99.90;;;;;;5054151;28;20085;-72
2022/07/25 07:28:19;;;;;;;9.15;6.03;;;24.10;99.90;;;;;;5059696;28;20087;-73
2022/07/25 07:30:45;;;;;;;8.02;5.65;;;24.00;99.90;;;;;;5067963;28;20043;-74
2022/07/25 07:33:10;;;;;;;8.25;5.60;;;24.30;99.90;;;;;;5074901;28;20044;-74
2022/07/25 07:35:36;;;;;;;9.00;6.05;;;24.80;99.90;;;;;;5074588;28;20134;-70
2022/07/25 07:38:02;;;;;;;10.27;5.07;;;24.90;99.90;;;;;;5090044;28;20036;-73
2022/07/25 07:40:27;;;;;;;6.97;5.20;;;25.00;99.90;;;;;;5074845;28;20131;-74
2022/07/25 07:42:54;;;;;;;6.35;4.93;;;24.70;99.90;;;;;;5075051;28;20028;-73
2022/07/25 07:45:22;;;;;;;6.05;5.07;;;24.20;99.90;;;;;;5074444;28;20075;-74
2022/07/25 07:47:49;;;;;;;5.05;4.55;;;24.40;99.90;;;;;;5071344;28;20048;-73
2022/07/25 07:50:17;;;;;;;6.80;4.75;;;24.00;99.90;;;;;;5083479;28;20054;-74
2022/07/25 07:52:43;;;;;;;4.80;4.10;;;24.30;99.90;;;;;;5065363;28;20033;-72
2022/07/25 07:57:54;;;;;;;4.35;2.60;;;24.00;99.90;;;;;;5067334;28;20033;-73
2022/07/25 08:00:20;;;;;;;3.30;2.20;;;24.10;99.90;;;;;;5071029;28;20504;-73
2022/07/25 08:02:51;;;;;;;2.38;2.17;;;24.00;99.90;;;;;;5059140;28;20044;-73
2022/07/25 08:05:43;;;;;;;3.20;2.25;;;23.80;99.90;;;;;;5053530;28;20401;-74
2022/07/25 08:08:11;;;;;;;4.10;2.20;;;23.80;99.90;;;;;;5068577;28;20113;-75
2022/07/25 08:10:40;;;;;;;4.97;2.65;;;23.60;99.90;;;;;;5053740;28;20386;-74
2022/07/25 08:13:14;;;;;;;2.40;2.03;;;23.50;99.90;;;;;;5071362;28;20517;-74
2022/07/25 08:15:41;;;;;;;4.90;1.88;;;23.70;99.90;;;;;;5053392;28;20036;-74
2022/07/25 08:18:06;;;;;;;4.35;1.88;;;23.50;99.90;;;;;;5070027;28;20494;-74
2022/07/25 08:20:32;;;;;;;6.60;1.90;;;23.30;99.90;;;;;;5053775;28;20089;-74
2022/07/25 08:22:57;;;;;;;6.90;2.13;;;22.00;99.90;;;;;;5053302;28;20071;-74
2022/07/25 08:25:23;;;;;;;3.92;2.05;;;23.10;99.90;;;;;;5053690;28;20036;-73
2022/07/25 08:27:49;;;;;;;2.70;2.10;;;23.10;99.90;;;;;;5056379;28;20064;-74
2022/07/25 08:30:16;;;;;;;5.80;2.50;;;22.80;99.90;;;;;;5078508;28;20036;-74
2022/07/25 08:32:50;;;;;;;2.97;1.75;;;23.00;99.90;;;;;;5063147;28;20043;-73
2022/07/25 08:35:17;;;;;;;2.90;1.55;;;23.10;99.90;;;;;;5075005;28;20036;-73
2022/07/25 08:37:43;;;;;;;4.72;2.08;;;23.40;99.90;;;;;;5081502;28;20040;-74
2022/07/25 08:40:10;;;;;;;3.28;1.70;;;23.60;99.90;;;;;;5072459;28;20046;-73
2022/07/25 08:42:36;;;;;;;3.35;2.72;;;23.20;99.90;;;;;;5054993;28;20059;-74
2022/07/25 08:45:05;;;;;;;2.50;1.60;;;23.20;99.90;;;;;;5070724;28;20068;-73
2022/07/25 08:47:31;;;;;;;6.22;1.80;;;23.30;99.90;;;;;;5035968;28;20576;-73
2022/07/25 08:49:57;;;;;;;6.03;2.33;;;23.20;99.90;;;;;;5052730;28;20215;-73
2022/07/25 08:52:23;;;;;;;4.68;2.60;;;23.20;99.90;;;;;;5053030;28;20110;-74
2022/07/25 08:54:49;;;;;;;6.55;1.67;;;23.40;99.90;;;;;;5051512;28;20086;-74
2022/07/25 08:57:15;;;;;;;5.63;2.28;;;23.50;99.90;;;;;;5054726;28;20089;-71
2022/07/25 08:59:42;;;;;;;5.32;2.08;;;23.80;99.90;;;;;;5051809;28;20039;-72
2022/07/25 09:02:11;;;;;;;3.42;2.28;;;23.00;99.90;;;;;;5052756;28;20048;-73
2022/07/25 09:04:37;;;;;;;3.55;1.80;;;23.00;99.90;;;;;;5052347;28;20569;-74
2022/07/25 09:07:03;;;;;;;2.40;2.03;;;23.30;99.90;;;;;;5074341;28;20120;-73
2022/07/25 09:09:37;;;;;;;6.10;2.15;;;23.50;99.90;;;;;;5061852;28;20507;-74
2022/07/25 09:12:04;;;;;;;4.45;2.25;;;22.90;99.90;;;;;;5075504;28;20395;-73
2022/07/25 09:14:39;;;;;;;6.28;2.33;;;23.40;99.90;;;;;;5076959;28;20098;-74
2022/07/25 09:17:06;;;;;;;3.90;2.15;;;23.70;99.90;;;;;;5070628;28;20048;-73
2022/07/25 09:19:32;;;;;;;3.90;2.25;;;23.30;99.90;;;;;;5052155;28;20417;-74
2022/07/25 09:22:07;;;;;;;4.47;1.80;;;23.50;99.90;;;;;;5035829;28;20032;-73
2022/07/25 09:24:33;;;;;;;4.13;2.03;;;23.40;99.90;;;;;;5069871;28;20285;-73
2022/07/25 09:27:07;;;;;;;4.03;2.30;;;23.60;99.90;;;;;;5070365;28;20039;-74
2022/07/25 09:29:33;;;;;;;4.20;2.28;;;23.60;99.90;;;;;;5055602;28;20036;-73
2022/07/25 09:32:01;;;;;;;4.25;2.17;;;23.50;99.90;;;;;;5040719;28;20045;-73
2022/07/25 09:34:38;;;;;;;5.22;2.20;;;23.10;99.90;;;;;;5039975;28;20063;-74
2022/07/25 09:37:08;;;;;;;5.30;2.13;;;23.60;99.90;;;;;;5073964;28;20032;-74
2022/07/25 09:39:43;;;;;;;3.17;2.30;;;22.90;99.90;;;;;;5056677;28;20043;-74
2022/07/25 09:42:26;;;;;;;3.47;2.03;;;22.90;99.90;;;;;;5057314;28;20510;-73
2022/07/25 09:45:04;;;;;;;7.35;2.20;;;22.70;99.90;;;;;;5042090;28;20036;-73
2022/07/25 09:47:32;;;;;;;8.05;3.22;;;22.50;99.90;;;;;;5058033;28;20513;-73
2022/07/25 09:49:58;;;;;;;3.65;2.13;;;22.40;99.90;;;;;;5057044;28;20085;-73
2022/07/25 09:52:24;;;;;;;4.80;2.08;;;22.50;99.90;;;;;;5057080;28;20043;-73
2022/07/25 09:54:49;;;;;;;6.60;2.42;;;22.40;99.90;;;;;;5056343;28;20040;-73
2022/07/25 09:57:15;;;;;;;5.05;2.17;;;22.60;99.90;;;;;;5081039;28;20440;-73
2022/07/25 09:59:41;;;;;;;5.15;2.70;;;23.30;99.90;;;;;;5057319;28;20409;-72
2022/07/25 10:02:41;;;;;;;6.85;2.60;;;23.10;99.90;;;;;;5056608;28;20094;-73
2022/07/25 10:05:37;;;;;;;5.35;2.25;;;23.10;99.90;;;;;;5057078;28;20490;-74
2022/07/25 10:08:06;;;;;;;6.40;2.08;;;23.10;99.90;;;;;;5055643;28;20040;-73
2022/07/25 10:10:43;;;;;;;6.18;2.78;;;23.00;99.90;;;;;;5061429;28;20041;-73
2022/07/25 10:13:30;;;;;;;6.45;2.53;;;23.00;99.90;;;;;;5046055;28;20120;-74
2022/07/25 10:15:55;;;;;;;9.88;2.50;;;23.10;99.90;;;;;;5063367;22;20053;-80
2022/07/25 10:18:24;;;;;;;6.43;2.60;;;23.10;99.90;;;;;;5028532;28;20034;-80
2022/07/25 10:20:52;;;;;;;8.50;2.63;;;23.30;99.90;;;;;;5022290;28;20045;-79
2022/07/25 10:23:26;;;;;;;7.88;2.15;;;23.50;99.90;;;;;;5054330;28;20030;-78
2022/07/25 10:26:12;;;;;;;8.85;2.97;;;23.60;99.90;;;;;;5021827;28;20507;-78
2022/07/25 10:28:46;;;;;;;6.55;2.83;;;23.80;99.90;;;;;;5003445;28;20045;-78
2022/07/25 10:31:23;;;;;;;6.70;2.35;;;23.90;99.90;;;;;;5001103;28;20531;-78
2022/07/25 10:33:57;;;;;;;7.82;2.13;;;24.00;99.90;;;;;;4991986;28;20392;-78
2022/07/25 10:36:24;;;;;;;7.28;2.40;;;24.40;99.90;;;;;;5017507;28;20057;-78
2022/07/25 10:38:51;;;;;;;8.60;2.30;;;24.60;99.90;;;;;;5015563;28;20124;-80
2022/07/25 10:41:17;;;;;;;8.05;2.75;;;25.20;99.90;;;;;;5015842;28;20034;-78
2022/07/25 10:43:45;;;;;;;6.30;2.90;;;24.20;99.90;;;;;;5017232;28;20044;-78
2022/07/25 10:46:19;;;;;;;6.55;2.13;;;24.00;99.90;;;;;;5029653;28;20037;-78
2022/07/25 10:48:56;;;;;;;7.95;2.47;;;24.20;99.90;;;;;;5015155;28;20048;-79
2022/07/25 10:51:26;;;;;;;9.68;2.55;;;24.50;99.90;;;;;;5041608;28;20037;-79
2022/07/25 10:53:52;;;;;;;6.60;2.47;;;24.10;99.90;;;;;;5035030;28;20045;-78
2022/07/25 10:56:21;;;;;;;8.52;2.20;;;23.90;99.90;;;;;;5033917;28;20562;-80
2022/07/25 10:58:49;;;;;;;10.35;2.65;;;23.90;99.90;;;;;;5033072;28;20048;-81
2022/07/25 11:01:27;;;;;;;6.95;2.55;;;23.20;99.90;;;;;;5013857;28;20092;-81
2022/07/25 11:03:56;;;;;;;8.48;2.95;;;23.40;99.90;;;;;;4993666;28;20057;-82
2022/07/25 11:06:41;;;;;;;9.63;2.55;;;23.10;99.90;;;;;;4993862;28;20089;-82
2022/07/25 11:09:21;;;;;;;5.93;2.00;;;23.20;99.90;;;;;;5007246;28;20036;-81
2022/07/25 11:11:50;;;;;;;9.80;2.40;;;23.10;99.90;;;;;;5009871;28;20034;-82
2022/07/25 11:14:22;;;;;;;4.68;2.00;;;23.40;99.90;;;;;;5010030;28;20096;-81
2022/07/25 11:16:56;;;;;;;5.83;2.37;;;23.40;99.90;;;;;;4993445;28;20038;-81
2022/07/25 11:19:26;;;;;;;6.50;2.25;;;23.30;99.90;;;;;;5009627;28;20066;-79
2022/07/25 11:21:57;;;;;;;4.65;2.10;;;24.00;99.90;;;;;;5012433;28;20039;-81
2022/07/25 11:24:42;;;;;;;5.90;1.60;;;23.60;99.90;;;;;;5003884;28;20042;-79
2022/07/25 11:27:11;;;;;;;4.82;1.60;;;23.80;99.90;;;;;;5030737;28;20033;-80
2022/07/25 11:29:37;;;;;;;4.30;1.73;;;23.70;99.90;;;;;;5035150;28;20050;-80
2022/07/25 11:32:08;;;;;;;7.57;1.75;;;24.10;99.90;;;;;;5011886;28;20038;-80
2022/07/25 11:34:37;;;;;;;7.45;2.28;;;24.10;99.90;;;;;;5026228;28;20041;-80
2022/07/25 11:37:06;;;;;;;7.88;2.00;;;23.80;99.90;;;;;;5027901;28;20053;-80
2022/07/25 11:39:34;;;;;;;6.07;1.92;;;24.80;99.90;;;;;;5028917;28;20097;-79
2022/07/25 11:42:01;;;;;;;7.32;2.20;;;24.20;99.90;;;;;;5011775;28;20042;-79
2022/07/25 11:44:39;;;;;;;5.05;2.05;;;24.00;99.90;;;;;;5011498;28;20030;-80
2022/07/25 11:47:07;;;;;;;6.28;2.22;;;24.10;99.90;;;;;;5028524;28;20041;-80
2022/07/25 11:49:46;;;;;;;6.43;2.70;;;24.70;99.90;;;;;;5020659;28;20034;-80
2022/07/25 11:52:30;;;;;;;7.65;2.45;;;23.90;99.90;;;;;;5017880;28;20084;-80
2022/07/25 11:54:58;;;;;;;11.82;2.88;;;23.60;99.90;;;;;;5000067;28;20103;-80
2022/07/25 11:57:26;;;;;;;8.30;2.03;;;23.80;99.90;;;;;;5018215;28;20049;-80
2022/07/25 11:59:53;;;;;;;8.55;2.70;;;23.80;99.90;;;;;;5000670;28;20550;-80
2022/07/25 12:02:23;;;;;;;6.57;2.10;;;24.30;99.90;;;;;;5023507;28;20073;-81
2022/07/25 12:04:57;;;;;;;7.97;2.80;;;24.40;99.90;;;;;;5014315;28;20044;-81
2022/07/25 12:07:36;;;;;;;6.38;2.90;;;23.90;99.90;;;;;;5023966;28;20042;-79
2022/07/25 12:10:03;;;;;;;7.40;2.70;;;24.10;99.90;;;;;;5022945;28;20057;-80
2022/07/25 12:12:39;;;;;;;7.07;2.50;;;23.80;99.90;;;;;;5026608;28;20052;-80
2022/07/25 12:15:05;;;;;;;8.48;2.65;;;24.10;99.90;;;;;;5004525;28;20042;-78
2022/07/25 12:17:30;;;;;;;6.53;2.10;;;23.90;99.90;;;;;;5003023;28;21014;-78
2022/07/25 12:19:56;;;;;;;5.95;2.17;;;23.90;99.90;;;;;;5006986;28;20033;-80
2022/07/25 12:22:22;;;;;;;7.07;2.08;;;24.10;99.90;;;;;;4994060;28;20053;-80
2022/07/25 12:24:47;;;;;;;4.80;1.88;;;24.60;99.90;;;;;;5004116;28;20033;-80
2022/07/25 12:27:13;;;;;;;5.95;1.60;;;24.50;99.90;;;;;;5017938;28;20064;-79
2022/07/25 12:29:38;;;;;;;5.60;2.25;;;25.00;99.90;;;;;;5013015;28;20061;-83
2022/07/25 12:32:04;;;;;;;7.85;2.35;;;25.00;99.90;;;;;;4995644;28;20069;-83
2022/07/25 12:34:30;;;;;;;6.20;2.28;;;23.90;99.90;;;;;;4991136;28;20049;-83
2022/07/25 12:36:56;;;;;;;6.53;1.75;;;25.40;99.90;;;;;;4977051;28;20042;-82
2022/07/25 12:39:21;;;;;;;14.93;2.28;;;24.30;99.90;;;;;;4994914;28;20640;-83
2022/07/25 12:41:47;;;;;;;4.55;2.22;;;23.70;99.90;;;;;;4993066;28;20053;-83
2022/07/25 12:44:12;;;;;;;4.55;2.00;;;25.30;99.90;;;;;;4986280;28;20040;-84
2022/07/25 12:46:40;;;;;;;7.18;2.20;;;25.00;99.90;;;;;;4992267;28;20038;-83
2022/07/25 12:49:05;;;;;;;8.63;2.50;;;23.00;99.90;;;;;;5010228;28;20034;-83